sensor_id;sensor_type;location;lat;lon;timestamp;temperature;humidity
16968;DHT22;8600;54.338;10.128;2022-08-02T00:02:09;12.90;99.90
16968;DHT22;8600;54.338;10.128;2022-08-02T00:04:35;12.90;99.90
16968;DHT22;8600;54.338;10.128;2022-08-02T00:07:04;12.90;99.90
16968;DHT22;8600;54.338;10.128;2022-08-02T00:09:31;12.90;99.90
16968;DHT22;8600;54.338;10.128;2022-08-02T00:11:58;12.90;99.90
16968;DHT22;8600;54.338;10.128;2022-08-02T00:14:25;12.90;99.90
16968;DHT22;8600;54.338;10.128;2022-08-02T00:16:52;12.90;99.90
16968;DHT22;8600;54.338;10.128;2022-08-02T00:19:19;12.90;99.90
16968;DHT22;8600;54.338;10.128;2022-08-02T00:21:45;12.90;99.90
16968;DHT22;8600;54.338;10.128;2022-08-02T00:24:14;12.80;99.90
16968;DHT22;8600;54.338;10.128;2022-08-02T00:26:41;12.70;99.90
16968;DHT22;8600;54.338;10.128;2022-08-02T00:29:08;12.80;99.90
16968;DHT22;8600;54.338;10.128;2022-08-02T00:31:35;12.80;99.90
16968;DHT22;8600;54.338;10.128;2022-08-02T00:34:02;12.60;99.90
16968;DHT22;8600;54.338;10.128;2022-08-02T00:36:29;12.60;99.90
16968;DHT22;8600;54.338;10.128;2022-08-02T00:38:56;12.50;99.90
16968;DHT22;8600;54.338;10.128;2022-08-02T00:41:24;12.50;99.90
16968;DHT22;8600;54.338;10.128;2022-08-02T00:43:51;12.60;99.90
16968;DHT22;8600;54.338;10.128;2022-08-02T00:46:19;12.60;99.90
16968;DHT22;8600;54.338;10.128;2022-08-02T00:48:47;12.70;99.90
16968;DHT22;8600;54.338;10.128;2022-08-02T00:51:15;12.70;99.90
16968;DHT22;8600;54.338;10.128;2022-08-02T00:53:42;12.70;99.90
16968;DHT22;8600;54.338;10.128;2022-08-02T00:56:09;12.60;99.90
16968;DHT22;8600;54.338;10.128;2022-08-02T00:58:37;12.60;99.90
16968;DHT22;8600;54.338;10.128;2022-08-02T01:01:04;12.60;99.90
16968;DHT22;8600;54.338;10.128;2022-08-02T01:03:31;12.60;99.90
16968;DHT22;8600;54.338;10.128;2022-08-02T01:05:58;12.50;99.90
16968;DHT22;8600;54.338;10.128;2022-08-02T01:08:25;12.50;99.90
16968;DHT22;8600;54.338;10.128;2022-08-02T01:10:52;12.50;99.90
16968;DHT22;8600;54.338;10.128;2022-08-02T01:13:19;12.40;99.90
16968;DHT22;8600;54.338;10.128;2022-08-02T01:15:53;12.40;99.90
16968;DHT22;8600;54.338;10.128;2022-08-02T01:18:26;12.40;99.90
16968;DHT22;8600;54.338;10.128;2022-08-02T01:21:05;12.40;99.90
16968;DHT22;8600;54.338;10.128;2022-08-02T01:23:50;12.40;99.90
16968;DHT22;8600;54.338;10.128;2022-08-02T01:26:38;12.40;99.90
16968;DHT22;8600;54.338;10.128;2022-08-02T01:29:12;12.40;99.90
16968;DHT22;8600;54.338;10.128;2022-08-02T01:31:47;12.40;99.90
16968;DHT22;8600;54.338;10.128;2022-08-02T01:34:20;12.40;99.90
16968;DHT22;8600;54.338;10.128;2022-08-02T01:36:53;12.40;99.90
16968;DHT22;8600;54.338;10.128;2022-08-02T01:39:25;12.30;99.90
16968;DHT22;8600;54.338;10.128;2022-08-02T01:41:53;12.20;99.90
16968;DHT22;8600;54.338;10.128;2022-08-02T01:44:24;12.20;99.90
16968;DHT22;8600;54.338;10.128;2022-08-02T01:46:54;12.10;99.90
16968;DHT22;8600;54.338;10.128;2022-08-02T01:49:23;12.20;99.90
16968;DHT22;8600;54.338;10.128;2022-08-02T01:51:52;12.20;99.90
16968;DHT22;8600;54.338;10.128;2022-08-02T01:54:37;12.20;99.90
16968;DHT22;8600;54.338;10.128;2022-08-02T01:57:06;12.20;99.90
16968;DHT22;8600;54.338;10.128;2022-08-02T01:59:38;12.20;99.90
16968;DHT22;8600;54.338;10.128;2022-08-02T02:02:07;12.20;99.90
16968;DHT22;8600;54.338;10.128;2022-08-02T02:04:35;12.10;99.90
16968;DHT22;8600;54.338;10.128;2022-08-02T02:07:03;12.10;99.90
16968;DHT22;8600;54.338;10.128;2022-08-02T02:09:36;12.10;99.90
16968;DHT22;8600;54.338;10.128;2022-08-02T02:12:03;12.00;99.90
16968;DHT22;8600;54.338;10.128;2022-08-02T02:14:32;12.10;99.90
16968;DHT22;8600;54.338;10.128;2022-08-02T02:17:02;12.00;99.90
16968;DHT22;8600;54.338;10.128;2022-08-02T02:19:29;12.00;99.90
16968;DHT22;8600;54.338;10.128;2022-08-02T02:21:59;12.00;99.90
16968;DHT22;8600;54.338;10.128;2022-08-02T02:24:26;11.90;99.90
16968;DHT22;8600;54.338;10.128;2022-08-02T02:26:53;11.90;99.90
16968;DHT22;8600;54.338;10.128;2022-08-02T02:29:21;11.90;99.90
16968;DHT22;8600;54.338;10.128;2022-08-02T02:31:52;11.70;99.90
16968;DHT22;8600;54.338;10.128;2022-08-02T02:34:26;11.80;99.90
16968;DHT22;8600;54.338;10.128;2022-08-02T02:36:57;11.80;99.90
16968;DHT22;8600;54.338;10.128;2022-08-02T02:39:27;11.80;99.90
16968;DHT22;8600;54.338;10.128;2022-08-02T02:41:56;11.80;99.90
16968;DHT22;8600;54.338;10.128;2022-08-02T02:44:24;11.80;99.90
16968;DHT22;8600;54.338;10.128;2022-08-02T02:46:52;11.60;99.90
16968;DHT22;8600;54.338;10.128;2022-08-02T02:49:22;11.60;99.90
16968;DHT22;8600;54.338;10.128;2022-08-02T02:51:50;11.50;99.90
16968;DHT22;8600;54.338;10.128;2022-08-02T02:54:18;11.40;99.90
16968;DHT22;8600;54.338;10.128;2022-08-02T02:56:47;11.40;99.90
16968;DHT22;8600;54.338;10.128;2022-08-02T02:59:14;11.40;99.90
16968;DHT22;8600;54.338;10.128;2022-08-02T03:01:42;11.40;99.90
16968;DHT22;8600;54.338;10.128;2022-08-02T03:04:10;11.40;99.90
16968;DHT22;8600;54.338;10.128;2022-08-02T03:06:39;11.50;99.90
16968;DHT22;8600;54.338;10.128;2022-08-02T03:09:07;11.50;99.90
16968;DHT22;8600;54.338;10.128;2022-08-02T03:11:35;11.60;99.90
16968;DHT22;8600;54.338;10.128;2022-08-02T03:14:06;11.50;99.90
16968;DHT22;8600;54.338;10.128;2022-08-02T03:16:41;11.50;99.90
16968;DHT22;8600;54.338;10.128;2022-08-02T03:19:08;11.50;99.90
16968;DHT22;8600;54.338;10.128;2022-08-02T03:21:35;11.30;99.90
16968;DHT22;8600;54.338;10.128;2022-08-02T03:24:04;11.20;99.90
16968;DHT22;8600;54.338;10.128;2022-08-02T03:26:31;11.30;99.90
16968;DHT22;8600;54.338;10.128;2022-08-02T03:28:58;11.40;99.90
16968;DHT22;8600;54.338;10.128;2022-08-02T03:31:25;11.40;99.90
16968;DHT22;8600;54.338;10.128;2022-08-02T03:33:53;11.40;99.90
16968;DHT22;8600;54.338;10.128;2022-08-02T03:36:22;11.50;99.90
16968;DHT22;8600;54.338;10.128;2022-08-02T03:38:50;11.60;99.90
16968;DHT22;8600;54.338;10.128;2022-08-02T03:41:21;11.60;99.90
16968;DHT22;8600;54.338;10.128;2022-08-02T03:43:49;11.70;99.90
16968;DHT22;8600;54.338;10.128;2022-08-02T03:46:18;11.70;99.90
16968;DHT22;8600;54.338;10.128;2022-08-02T03:48:46;11.70;99.90
16968;DHT22;8600;54.338;10.128;2022-08-02T03:51:13;11.70;99.90
16968;DHT22;8600;54.338;10.128;2022-08-02T03:53:41;11.70;99.90
16968;DHT22;8600;54.338;10.128;2022-08-02T03:56:09;11.70;99.90
16968;DHT22;8600;54.338;10.128;2022-08-02T03:58:37;11.70;99.90
16968;DHT22;8600;54.338;10.128;2022-08-02T04:01:04;11.60;99.90
16968;DHT22;8600;54.338;10.128;2022-08-02T04:03:31;11.60;99.90
16968;DHT22;8600;54.338;10.128;2022-08-02T04:05:58;11.70;99.90
16968;DHT22;8600;54.338;10.128;2022-08-02T04:08:25;11.80;99.90
16968;DHT22;8600;54.338;10.128;2022-08-02T04:10:52;11.70;99.90
16968;DHT22;8600;54.338;10.128;2022-08-02T04:13:38;11.70;99.90
16968;DHT22;8600;54.338;10.128;2022-08-02T04:16:11;11.70;99.90
16968;DHT22;8600;54.338;10.128;2022-08-02T04:18:41;11.80;99.90
16968;DHT22;8600;54.338;10.128;2022-08-02T04:21:12;11.80;99.90
16968;DHT22;8600;54.338;10.128;2022-08-02T04:23:41;11.80;99.90
16968;DHT22;8600;54.338;10.128;2022-08-02T04:26:09;11.70;99.90
16968;DHT22;8600;54.338;10.128;2022-08-02T04:28:39;11.70;99.90
16968;DHT22;8600;54.338;10.128;2022-08-02T04:31:07;11.60;99.90
16968;DHT22;8600;54.338;10.128;2022-08-02T04:33:35;11.70;99.90
16968;DHT22;8600;54.338;10.128;2022-08-02T04:36:04;11.70;99.90
16968;DHT22;8600;54.338;10.128;2022-08-02T04:38:31;11.70;99.90
16968;DHT22;8600;54.338;10.128;2022-08-02T04:40:58;11.70;99.90
16968;DHT22;8600;54.338;10.128;2022-08-02T04:43:25;11.70;99.90
16968;DHT22;8600;54.338;10.128;2022-08-02T04:45:54;11.70;99.90
16968;DHT22;8600;54.338;10.128;2022-08-02T04:48:22;11.70;99.90
16968;DHT22;8600;54.338;10.128;2022-08-02T04:50:50;11.70;99.90
16968;DHT22;8600;54.338;10.128;2022-08-02T04:53:17;11.60;99.90
16968;DHT22;8600;54.338;10.128;2022-08-02T04:55:44;11.70;99.90
16968;DHT22;8600;54.338;10.128;2022-08-02T04:58:11;11.70;99.90
16968;DHT22;8600;54.338;10.128;2022-08-02T05:00:38;11.80;99.90
16968;DHT22;8600;54.338;10.128;2022-08-02T05:03:06;11.70;99.90
16968;DHT22;8600;54.338;10.128;2022-08-02T05:05:33;11.80;99.90
16968;DHT22;8600;54.338;10.128;2022-08-02T05:08:00;11.80;99.90
16968;DHT22;8600;54.338;10.128;2022-08-02T05:10:27;11.80;99.90
16968;DHT22;8600;54.338;10.128;2022-08-02T05:12:54;11.90;99.90
16968;DHT22;8600;54.338;10.128;2022-08-02T05:15:21;12.00;99.90
16968;DHT22;8600;54.338;10.128;2022-08-02T05:17:48;11.90;99.90
16968;DHT22;8600;54.338;10.128;2022-08-02T05:20:17;12.00;99.90
16968;DHT22;8600;54.338;10.128;2022-08-02T05:22:45;12.10;99.90
16968;DHT22;8600;54.338;10.128;2022-08-02T05:25:13;12.20;99.90
16968;DHT22;8600;54.338;10.128;2022-08-02T05:27:40;12.30;99.90
16968;DHT22;8600;54.338;10.128;2022-08-02T05:30:08;12.40;99.90
16968;DHT22;8600;54.338;10.128;2022-08-02T05:32:42;12.60;99.90
16968;DHT22;8600;54.338;10.128;2022-08-02T05:35:09;12.70;99.90
16968;DHT22;8600;54.338;10.128;2022-08-02T05:37:37;12.90;99.90
16968;DHT22;8600;54.338;10.128;2022-08-02T05:40:05;13.10;99.90
16968;DHT22;8600;54.338;10.128;2022-08-02T05:42:33;13.40;99.90
16968;DHT22;8600;54.338;10.128;2022-08-02T05:45:00;13.50;99.90
16968;DHT22;8600;54.338;10.128;2022-08-02T05:47:27;14.00;99.90
16968;DHT22;8600;54.338;10.128;2022-08-02T05:49:54;14.20;99.90
16968;DHT22;8600;54.338;10.128;2022-08-02T05:52:24;14.50;99.90
16968;DHT22;8600;54.338;10.128;2022-08-02T05:54:59;14.50;99.90
16968;DHT22;8600;54.338;10.128;2022-08-02T05:57:36;14.80;99.90
16968;DHT22;8600;54.338;10.128;2022-08-02T06:00:06;14.90;99.90
16968;DHT22;8600;54.338;10.128;2022-08-02T06:03:03;15.10;99.90
16968;DHT22;8600;54.338;10.128;2022-08-02T06:05:33;15.10;99.90
16968;DHT22;8600;54.338;10.128;2022-08-02T06:08:02;15.40;99.90
16968;DHT22;8600;54.338;10.128;2022-08-02T06:10:35;15.80;99.90
16968;DHT22;8600;54.338;10.128;2022-08-02T06:13:07;16.40;99.90
16968;DHT22;8600;54.338;10.128;2022-08-02T06:15:35;16.50;99.90
16968;DHT22;8600;54.338;10.128;2022-08-02T06:18:03;16.40;99.90
16968;DHT22;8600;54.338;10.128;2022-08-02T06:20:31;16.50;99.90
16968;DHT22;8600;54.338;10.128;2022-08-02T06:23:02;16.70;99.90
16968;DHT22;8600;54.338;10.128;2022-08-02T06:25:30;17.00;99.90
16968;DHT22;8600;54.338;10.128;2022-08-02T06:28:00;16.30;99.90
16968;DHT22;8600;54.338;10.128;2022-08-02T06:30:29;16.20;99.90
16968;DHT22;8600;54.338;10.128;2022-08-02T06:32:57;16.10;99.90
16968;DHT22;8600;54.338;10.128;2022-08-02T06:35:25;16.50;99.90
16968;DHT22;8600;54.338;10.128;2022-08-02T06:37:58;16.80;99.90
16968;DHT22;8600;54.338;10.128;2022-08-02T06:40:29;16.30;99.90
16968;DHT22;8600;54.338;10.128;2022-08-02T06:43:05;15.90;99.90
16968;DHT22;8600;54.338;10.128;2022-08-02T06:45:33;16.40;99.90
16968;DHT22;8600;54.338;10.128;2022-08-02T06:48:00;16.80;99.90
16968;DHT22;8600;54.338;10.128;2022-08-02T06:50:29;16.90;99.90
16968;DHT22;8600;54.338;10.128;2022-08-02T06:52:56;17.10;99.90
16968;DHT22;8600;54.338;10.128;2022-08-02T06:55:23;17.00;99.90
16968;DHT22;8600;54.338;10.128;2022-08-02T06:57:50;16.60;99.90
16968;DHT22;8600;54.338;10.128;2022-08-02T07:00:18;17.00;99.90
16968;DHT22;8600;54.338;10.128;2022-08-02T07:02:45;17.30;99.90
16968;DHT22;8600;54.338;10.128;2022-08-02T07:05:12;17.30;99.90
16968;DHT22;8600;54.338;10.128;2022-08-02T07:07:39;17.10;99.90
16968;DHT22;8600;54.338;10.128;2022-08-02T07:10:06;17.60;99.90
16968;DHT22;8600;54.338;10.128;2022-08-02T07:12:34;17.30;99.90
16968;DHT22;8600;54.338;10.128;2022-08-02T07:15:03;16.80;99.90
16968;DHT22;8600;54.338;10.128;2022-08-02T07:17:32;16.70;99.90
16968;DHT22;8600;54.338;10.128;2022-08-02T07:20:00;17.00;99.90
16968;DHT22;8600;54.338;10.128;2022-08-02T07:22:28;16.80;99.90
16968;DHT22;8600;54.338;10.128;2022-08-02T07:24:56;16.80;99.90
16968;DHT22;8600;54.338;10.128;2022-08-02T07:27:23;17.10;99.90
16968;DHT22;8600;54.338;10.128;2022-08-02T07:29:50;17.60;99.90
16968;DHT22;8600;54.338;10.128;2022-08-02T07:32:19;17.80;99.90
16968;DHT22;8600;54.338;10.128;2022-08-02T07:34:48;17.60;99.90
16968;DHT22;8600;54.338;10.128;2022-08-02T07:37:15;17.60;99.90
16968;DHT22;8600;54.338;10.128;2022-08-02T07:39:42;17.20;99.90
16968;DHT22;8600;54.338;10.128;2022-08-02T07:42:09;17.60;99.90
16968;DHT22;8600;54.338;10.128;2022-08-02T07:44:36;17.70;99.90
16968;DHT22;8600;54.338;10.128;2022-08-02T07:47:03;17.70;99.90
16968;DHT22;8600;54.338;10.128;2022-08-02T07:49:30;17.60;99.90
16968;DHT22;8600;54.338;10.128;2022-08-02T07:51:58;17.60;99.90
16968;DHT22;8600;54.338;10.128;2022-08-02T07:54:25;17.70;99.90
16968;DHT22;8600;54.338;10.128;2022-08-02T07:56:52;17.70;99.90
16968;DHT22;8600;54.338;10.128;2022-08-02T07:59:20;17.60;99.90
16968;DHT22;8600;54.338;10.128;2022-08-02T08:01:47;17.50;99.90
16968;DHT22;8600;54.338;10.128;2022-08-02T08:04:14;17.60;99.90
16968;DHT22;8600;54.338;10.128;2022-08-02T08:06:42;17.70;99.90
16968;DHT22;8600;54.338;10.128;2022-08-02T08:09:10;17.70;99.90
16968;DHT22;8600;54.338;10.128;2022-08-02T08:11:37;17.70;99.90
16968;DHT22;8600;54.338;10.128;2022-08-02T08:14:04;17.70;99.90
16968;DHT22;8600;54.338;10.128;2022-08-02T08:16:31;18.10;99.90
16968;DHT22;8600;54.338;10.128;2022-08-02T08:18:58;18.20;99.90
16968;DHT22;8600;54.338;10.128;2022-08-02T08:21:25;18.30;99.90
16968;DHT22;8600;54.338;10.128;2022-08-02T08:23:52;18.40;99.90
16968;DHT22;8600;54.338;10.128;2022-08-02T08:26:20;18.50;99.90
16968;DHT22;8600;54.338;10.128;2022-08-02T08:28:48;18.30;99.90
16968;DHT22;8600;54.338;10.128;2022-08-02T08:31:14;18.00;99.90
16968;DHT22;8600;54.338;10.128;2022-08-02T08:33:41;17.90;99.90
16968;DHT22;8600;54.338;10.128;2022-08-02T08:36:08;18.50;99.90
16968;DHT22;8600;54.338;10.128;2022-08-02T08:38:35;18.30;99.90
16968;DHT22;8600;54.338;10.128;2022-08-02T08:41:02;18.30;99.90
16968;DHT22;8600;54.338;10.128;2022-08-02T08:43:30;18.30;99.90
16968;DHT22;8600;54.338;10.128;2022-08-02T08:45:57;18.60;99.90
16968;DHT22;8600;54.338;10.128;2022-08-02T08:48:25;18.80;99.90
16968;DHT22;8600;54.338;10.128;2022-08-02T08:50:55;18.90;99.90
16968;DHT22;8600;54.338;10.128;2022-08-02T08:53:24;19.00;99.90
16968;DHT22;8600;54.338;10.128;2022-08-02T08:55:52;18.90;99.90
16968;DHT22;8600;54.338;10.128;2022-08-02T08:58:21;18.40;99.90
16968;DHT22;8600;54.338;10.128;2022-08-02T09:00:49;18.70;99.90
16968;DHT22;8600;54.338;10.128;2022-08-02T09:03:16;18.60;99.90
16968;DHT22;8600;54.338;10.128;2022-08-02T09:05:43;18.80;99.90
16968;DHT22;8600;54.338;10.128;2022-08-02T09:08:12;18.60;99.90
16968;DHT22;8600;54.338;10.128;2022-08-02T09:10:40;19.00;99.90
16968;DHT22;8600;54.338;10.128;2022-08-02T09:13:10;19.30;99.90
16968;DHT22;8600;54.338;10.128;2022-08-02T09:15:38;19.10;99.90
16968;DHT22;8600;54.338;10.128;2022-08-02T09:18:07;18.90;99.90
16968;DHT22;8600;54.338;10.128;2022-08-02T09:20:49;18.80;99.90
16968;DHT22;8600;54.338;10.128;2022-08-02T09:23:16;19.00;99.90
16968;DHT22;8600;54.338;10.128;2022-08-02T09:25:54;19.30;99.90
16968;DHT22;8600;54.338;10.128;2022-08-02T09:28:25;19.20;99.90
16968;DHT22;8600;54.338;10.128;2022-08-02T09:30:52;19.10;99.90
16968;DHT22;8600;54.338;10.128;2022-08-02T09:33:25;19.10;99.90
16968;DHT22;8600;54.338;10.128;2022-08-02T09:35:59;19.30;99.90
16968;DHT22;8600;54.338;10.128;2022-08-02T09:38:26;19.00;99.90
16968;DHT22;8600;54.338;10.128;2022-08-02T09:40:53;19.20;99.90
16968;DHT22;8600;54.338;10.128;2022-08-02T09:43:20;19.40;99.90
16968;DHT22;8600;54.338;10.128;2022-08-02T09:45:47;19.30;99.90
16968;DHT22;8600;54.338;10.128;2022-08-02T09:48:14;19.60;99.90
16968;DHT22;8600;54.338;10.128;2022-08-02T09:50:43;19.80;99.90
16968;DHT22;8600;54.338;10.128;2022-08-02T09:53:12;19.80;99.90
16968;DHT22;8600;54.338;10.128;2022-08-02T09:55:40;20.00;99.90
16968;DHT22;8600;54.338;10.128;2022-08-02T09:58:17;19.80;99.90
16968;DHT22;8600;54.338;10.128;2022-08-02T10:00:53;19.90;99.90
16968;DHT22;8600;54.338;10.128;2022-08-02T10:03:20;19.90;99.90
16968;DHT22;8600;54.338;10.128;2022-08-02T10:05:51;19.80;99.90
16968;DHT22;8600;54.338;10.128;2022-08-02T10:08:19;19.80;99.90
16968;DHT22;8600;54.338;10.128;2022-08-02T10:10:46;19.90;99.90
16968;DHT22;8600;54.338;10.128;2022-08-02T10:13:14;19.80;99.90
16968;DHT22;8600;54.338;10.128;2022-08-02T10:15:41;19.90;99.90
16968;DHT22;8600;54.338;10.128;2022-08-02T10:18:09;19.90;99.90
16968;DHT22;8600;54.338;10.128;2022-08-02T10:20:43;19.90;99.90
16968;DHT22;8600;54.338;10.128;2022-08-02T10:23:12;19.90;99.90
16968;DHT22;8600;54.338;10.128;2022-08-02T10:25:41;19.80;99.90
16968;DHT22;8600;54.338;10.128;2022-08-02T10:28:11;19.80;99.90
16968;DHT22;8600;54.338;10.128;2022-08-02T10:30:42;20.10;99.90
16968;DHT22;8600;54.338;10.128;2022-08-02T10:33:10;20.40;99.90
16968;DHT22;8600;54.338;10.128;2022-08-02T10:35:38;20.50;99.90
16968;DHT22;8600;54.338;10.128;2022-08-02T10:38:10;20.60;99.90
16968;DHT22;8600;54.338;10.128;2022-08-02T10:40:46;20.80;99.90
16968;DHT22;8600;54.338;10.128;2022-08-02T10:43:44;21.00;99.90
16968;DHT22;8600;54.338;10.128;2022-08-02T10:46:32;21.10;99.90
16968;DHT22;8600;54.338;10.128;2022-08-02T10:49:02;21.10;99.90
16968;DHT22;8600;54.338;10.128;2022-08-02T10:52:04;21.00;99.90
16968;DHT22;8600;54.338;10.128;2022-08-02T10:54:34;21.00;99.90
16968;DHT22;8600;54.338;10.128;2022-08-02T10:57:12;21.20;99.90
16968;DHT22;8600;54.338;10.128;2022-08-02T10:59:40;21.30;99.90
16968;DHT22;8600;54.338;10.128;2022-08-02T11:02:07;21.10;99.90
16968;DHT22;8600;54.338;10.128;2022-08-02T11:05:05;21.10;99.90
16968;DHT22;8600;54.338;10.128;2022-08-02T11:07:35;21.10;99.90
16968;DHT22;8600;54.338;10.128;2022-08-02T11:10:38;21.20;99.90
16968;DHT22;8600;54.338;10.128;2022-08-02T11:13:11;21.50;99.90
16968;DHT22;8600;54.338;10.128;2022-08-02T11:15:53;21.50;99.90
16968;DHT22;8600;54.338;10.128;2022-08-02T11:18:22;21.60;99.90
16968;DHT22;8600;54.338;10.128;2022-08-02T11:21:21;21.50;99.90
16968;DHT22;8600;54.338;10.128;2022-08-02T11:23:49;21.80;99.90
16968;DHT22;8600;54.338;10.128;2022-08-02T11:26:41;21.80;99.90
16968;DHT22;8600;54.338;10.128;2022-08-02T11:29:10;21.90;99.90
16968;DHT22;8600;54.338;10.128;2022-08-02T11:31:39;21.90;99.90
16968;DHT22;8600;54.338;10.128;2022-08-02T11:34:06;21.80;99.90
16968;DHT22;8600;54.338;10.128;2022-08-02T11:36:41;21.90;99.90
16968;DHT22;8600;54.338;10.128;2022-08-02T11:39:09;22.10;99.90
16968;DHT22;8600;54.338;10.128;2022-08-02T11:41:36;22.10;99.90
16968;DHT22;8600;54.338;10.128;2022-08-02T11:44:03;22.20;99.90
16968;DHT22;8600;54.338;10.128;2022-08-02T11:46:31;22.40;99.90
16968;DHT22;8600;54.338;10.128;2022-08-02T11:49:13;22.40;99.90
16968;DHT22;8600;54.338;10.128;2022-08-02T11:51:54;22.60;99.90
16968;DHT22;8600;54.338;10.128;2022-08-02T11:54:23;22.60;99.90
16968;DHT22;8600;54.338;10.128;2022-08-02T11:56:50;22.70;99.90
16968;DHT22;8600;54.338;10.128;2022-08-02T11:59:18;22.80;99.90
16968;DHT22;8600;54.338;10.128;2022-08-02T12:01:46;22.70;99.90
16968;DHT22;8600;54.338;10.128;2022-08-02T12:04:18;22.90;99.90
16968;DHT22;8600;54.338;10.128;2022-08-02T12:06:56;22.70;99.90
16968;DHT22;8600;54.338;10.128;2022-08-02T12:09:25;22.80;99.90
16968;DHT22;8600;54.338;10.128;2022-08-02T12:11:52;22.90;99.90
16968;DHT22;8600;54.338;10.128;2022-08-02T12:14:20;22.90;99.90
16968;DHT22;8600;54.338;10.128;2022-08-02T12:16:49;23.00;99.90
16968;DHT22;8600;54.338;10.128;2022-08-02T12:19:33;23.10;99.90
16968;DHT22;8600;54.338;10.128;2022-08-02T12:22:09;23.30;99.90
16968;DHT22;8600;54.338;10.128;2022-08-02T12:24:38;23.10;99.90
16968;DHT22;8600;54.338;10.128;2022-08-02T12:27:05;23.20;99.90
16968;DHT22;8600;54.338;10.128;2022-08-02T12:29:34;23.20;99.90
16968;DHT22;8600;54.338;10.128;2022-08-02T12:32:04;23.20;99.90
16968;DHT22;8600;54.338;10.128;2022-08-02T12:34:32;23.20;99.90
16968;DHT22;8600;54.338;10.128;2022-08-02T12:37:02;23.20;99.90
16968;DHT22;8600;54.338;10.128;2022-08-02T12:39:38;23.50;99.90
16968;DHT22;8600;54.338;10.128;2022-08-02T12:42:07;23.40;99.90
16968;DHT22;8600;54.338;10.128;2022-08-02T12:44:36;23.30;99.90
16968;DHT22;8600;54.338;10.128;2022-08-02T12:47:06;23.30;99.90
16968;DHT22;8600;54.338;10.128;2022-08-02T12:49:34;23.50;99.90
16968;DHT22;8600;54.338;10.128;2022-08-02T12:52:02;23.70;99.90
16968;DHT22;8600;54.338;10.128;2022-08-02T12:54:43;23.50;99.90
16968;DHT22;8600;54.338;10.128;2022-08-02T12:57:11;23.30;99.90
16968;DHT22;8600;54.338;10.128;2022-08-02T12:59:39;23.40;99.90
16968;DHT22;8600;54.338;10.128;2022-08-02T13:02:09;23.40;99.90
16968;DHT22;8600;54.338;10.128;2022-08-02T13:04:37;23.40;99.90
16968;DHT22;8600;54.338;10.128;2022-08-02T13:07:04;23.40;99.90
16968;DHT22;8600;54.338;10.128;2022-08-02T13:09:35;23.40;99.90
16968;DHT22;8600;54.338;10.128;2022-08-02T13:12:03;23.60;99.90
16968;DHT22;8600;54.338;10.128;2022-08-02T13:14:30;23.70;99.90
16968;DHT22;8600;54.338;10.128;2022-08-02T13:16:56;23.90;99.90
16968;DHT22;8600;54.338;10.128;2022-08-02T13:19:25;24.00;99.90
16968;DHT22;8600;54.338;10.128;2022-08-02T13:21:52;24.20;99.90
16968;DHT22;8600;54.338;10.128;2022-08-02T13:24:20;24.40;99.90
16968;DHT22;8600;54.338;10.128;2022-08-02T13:26:47;24.60;99.90
16968;DHT22;8600;54.338;10.128;2022-08-02T13:29:13;24.30;99.90
16968;DHT22;8600;54.338;10.128;2022-08-02T13:31:40;24.40;99.90
16968;DHT22;8600;54.338;10.128;2022-08-02T13:34:08;24.30;99.90
16968;DHT22;8600;54.338;10.128;2022-08-02T13:36:36;24.40;99.90
16968;DHT22;8600;54.338;10.128;2022-08-02T13:39:03;24.50;99.90
16968;DHT22;8600;54.338;10.128;2022-08-02T13:41:31;24.50;99.90
16968;DHT22;8600;54.338;10.128;2022-08-02T13:43:58;24.20;99.90
16968;DHT22;8600;54.338;10.128;2022-08-02T13:46:25;24.30;99.90
16968;DHT22;8600;54.338;10.128;2022-08-02T13:48:52;24.30;99.90
16968;DHT22;8600;54.338;10.128;2022-08-02T13:51:19;24.30;99.90
16968;DHT22;8600;54.338;10.128;2022-08-02T13:53:47;24.30;99.90
16968;DHT22;8600;54.338;10.128;2022-08-02T13:56:14;24.30;99.90
16968;DHT22;8600;54.338;10.128;2022-08-02T13:58:41;24.10;99.90
16968;DHT22;8600;54.338;10.128;2022-08-02T14:01:08;23.90;99.90
16968;DHT22;8600;54.338;10.128;2022-08-02T14:03:35;24.10;99.90
16968;DHT22;8600;54.338;10.128;2022-08-02T14:06:02;24.40;99.90
16968;DHT22;8600;54.338;10.128;2022-08-02T14:08:31;24.50;99.90
16968;DHT22;8600;54.338;10.128;2022-08-02T14:10:59;24.50;99.90
16968;DHT22;8600;54.338;10.128;2022-08-02T14:13:26;24.60;99.90
16968;DHT22;8600;54.338;10.128;2022-08-02T14:15:53;24.40;99.90
16968;DHT22;8600;54.338;10.128;2022-08-02T14:18:21;24.30;99.90
16968;DHT22;8600;54.338;10.128;2022-08-02T14:20:48;24.40;99.90
16968;DHT22;8600;54.338;10.128;2022-08-02T14:23:15;24.60;99.90
16968;DHT22;8600;54.338;10.128;2022-08-02T14:25:42;24.30;99.90
16968;DHT22;8600;54.338;10.128;2022-08-02T14:28:10;24.00;99.90
16968;DHT22;8600;54.338;10.128;2022-08-02T14:30:37;24.00;99.90
16968;DHT22;8600;54.338;10.128;2022-08-02T14:33:04;24.00;99.90
16968;DHT22;8600;54.338;10.128;2022-08-02T14:35:31;24.00;99.90
16968;DHT22;8600;54.338;10.128;2022-08-02T14:37:58;24.00;99.90
16968;DHT22;8600;54.338;10.128;2022-08-02T14:40:25;24.00;99.90
16968;DHT22;8600;54.338;10.128;2022-08-02T14:42:52;23.90;99.90
16968;DHT22;8600;54.338;10.128;2022-08-02T14:45:20;24.00;99.90
16968;DHT22;8600;54.338;10.128;2022-08-02T14:47:48;24.20;99.90
16968;DHT22;8600;54.338;10.128;2022-08-02T14:50:16;24.30;99.90
16968;DHT22;8600;54.338;10.128;2022-08-02T14:52:44;24.20;99.90
16968;DHT22;8600;54.338;10.128;2022-08-02T14:55:11;24.10;99.90
16968;DHT22;8600;54.338;10.128;2022-08-02T14:57:38;24.10;99.90
16968;DHT22;8600;54.338;10.128;2022-08-02T15:00:06;24.20;99.90
16968;DHT22;8600;54.338;10.128;2022-08-02T15:02:38;24.30;99.90
16968;DHT22;8600;54.338;10.128;2022-08-02T15:05:11;24.30;99.90
16968;DHT22;8600;54.338;10.128;2022-08-02T15:07:38;24.40;99.90
16968;DHT22;8600;54.338;10.128;2022-08-02T15:10:05;24.20;99.90
16968;DHT22;8600;54.338;10.128;2022-08-02T15:12:32;24.10;99.90
16968;DHT22;8600;54.338;10.128;2022-08-02T15:15:01;24.10;99.90
16968;DHT22;8600;54.338;10.128;2022-08-02T15:17:31;24.20;99.90
16968;DHT22;8600;54.338;10.128;2022-08-02T15:20:03;24.20;99.90
16968;DHT22;8600;54.338;10.128;2022-08-02T15:22:30;24.10;99.90
16968;DHT22;8600;54.338;10.128;2022-08-02T15:24:57;24.10;99.90
16968;DHT22;8600;54.338;10.128;2022-08-02T15:27:29;24.10;99.90
16968;DHT22;8600;54.338;10.128;2022-08-02T15:29:56;24.00;99.90
16968;DHT22;8600;54.338;10.128;2022-08-02T15:32:25;23.90;99.90
16968;DHT22;8600;54.338;10.128;2022-08-02T15:34:52;23.70;99.90
16968;DHT22;8600;54.338;10.128;2022-08-02T15:37:20;23.70;99.90
16968;DHT22;8600;54.338;10.128;2022-08-02T15:39:50;23.80;99.90
16968;DHT22;8600;54.338;10.128;2022-08-02T15:42:23;23.80;99.90
16968;DHT22;8600;54.338;10.128;2022-08-02T15:44:50;23.90;99.90